Главная страница
METAR-TAF:

METAR-TAF

Аэропорты :

Коутсвилл, Пенсильвания, США

широта: 39-58-44N, долгота: 075-51-56W, высота над уровнем моря: 201 м

Текущие метеонаблюдения

Эта сводка был подготовлена 33 минут назад, в 10:35 UTC
Ветер 4 Узел от западно-северо-западный
Температура 15°C
Влажность 82%
Давление 1016 hPa
Видимость: 16.1 км
ясное небо

METAR: KMQS 241035Z AUTO 29004KT 10SM CLR 15/12 A2999 RMK AO2

Время: 07:08 (11:08 UTC)


TAF: отсутствует

Метеонаблюдения и прогнозы для более 4000 аэропортов (сводки METAR и TAF).

Имеющиеся станции представлены на карте желтыми и красными точками.

Чтобы увидеть название станции, наведите на нее мышь.

Затем щелкните, чтобы увидеть метеонаблюдения и метеопрогнозы.

Управление картой: чтобы увеличить масштаб, щелкните зеленые кнопки с черным крестиком; чтобы уменьшить масштаб, щелкните зеленую кнопку с тире; для просмотра соседних карт щелкайте зеленые стрелки.


METAR-TAF: